»·PEaware :: N113TM KBUR-KSJC

N113TM :: KBUR-KSJC

FLIGHT INFORMATION

Flight Status: Arrived
Operator: Privately registered:
United States
More flights under this callsign
Pilot: Michal O. (28532)
Aircraft: SOCATA TBM-900
(TBM9)
More flights by this aircraft type
Origin: KBUR Bob Hope-Burbank
United States
Destination: KSJC Mineta San Jose Intl
United States
More flights between these airports :: More routes between these airports
Route: VNY3 AVE SNS
File this flight plan on PilotEdge
Remarks:
Altitude:
(Current/Filed)
28,000ft
Speed:
(Current/Filed)
320kts
Departed: 23-Apr-21 03:35 PM
Arrived: 23-Apr-21 04:43 PM
Distance/Time
Traveled:
257nm/1:07
Distance/Time
To Go:
Arrived

Flight Plot

Page will automatically refresh every two minutes.

Flight plan parsing failed; only flown route is shown


Map Options




Map Legend


Flown Route
Filed Route
Departure Airport
Arrival Airport
Navaid (VOR, NDB)
Fix

Horizontal Profiles

Position Reports

Time Latitude Longitude Heading Altitude Ground
Speed
23-Apr-21 15:07 34.203296 -118.360669 153 741ft 0kts
23-Apr-21 15:08 34.203296 -118.360669 153 741ft 0kts
23-Apr-21 15:09 34.203296 -118.360669 153 741ft 0kts
23-Apr-21 15:10 34.203296 -118.360669 153 741ft 0kts
23-Apr-21 15:11 34.203296 -118.360669 153 741ft 0kts
23-Apr-21 15:12 34.203296 -118.360669 153 741ft 0kts
23-Apr-21 15:13 34.203296 -118.360669 153 741ft 0kts
23-Apr-21 15:14 34.203296 -118.360669 153 741ft 0kts
23-Apr-21 15:15 34.203296 -118.360669 153 741ft 0kts
23-Apr-21 15:16 34.203296 -118.360669 153 741ft 0kts
23-Apr-21 15:17 34.203296 -118.360669 153 741ft 0kts
23-Apr-21 15:18 34.203296 -118.360669 153 741ft 0kts
23-Apr-21 15:19 34.203296 -118.360669 153 741ft 0kts
23-Apr-21 15:20 34.203296 -118.360669 153 741ft 0kts
23-Apr-21 15:21 34.203296 -118.360669 153 741ft 0kts
23-Apr-21 15:22 34.203296 -118.360669 153 741ft 0kts
23-Apr-21 15:23 34.203296 -118.360669 153 741ft 0kts
23-Apr-21 15:24 34.203296 -118.360669 153 741ft 0kts
23-Apr-21 15:25 34.203296 -118.360669 153 741ft 0kts
23-Apr-21 15:26 34.203296 -118.360669 153 741ft 0kts
23-Apr-21 15:27 34.203296 -118.360669 153 741ft 0kts
23-Apr-21 15:28 34.203383 -118.360081 22 741ft 0kts
23-Apr-21 15:29 34.204654 -118.359774 15 746ft 6kts
23-Apr-21 15:30 34.208492 -118.360557 347 764ft 18kts
23-Apr-21 15:31 34.211443 -118.361257 29 776ft 0kts
23-Apr-21 15:32 34.211443 -118.361257 29 776ft 0kts
23-Apr-21 15:33 34.211222 -118.360190 168 775ft 37kts
23-Apr-21 15:34 34.185535 -118.372720 225 2547ft 139kts
23-Apr-21 15:35 34.155043 -118.409863 225 4665ft 180kts
23-Apr-21 15:36 34.123638 -118.458454 279 6621ft 190kts
23-Apr-21 15:37 34.162350 -118.498615 325 8724ft 189kts
23-Apr-21 15:38 34.206447 -118.533951 325 10719ft 187kts
23-Apr-21 15:39 34.250355 -118.569003 325 12689ft 187kts
23-Apr-21 15:40 34.294935 -118.604626 324 14566ft 193kts
23-Apr-21 15:41 34.344210 -118.633467 334 16424ft 198kts
23-Apr-21 15:42 34.396048 -118.658989 332 18003ft 202kts
23-Apr-21 15:43 34.449346 -118.685297 332 19373ft 207kts
23-Apr-21 15:44 34.503903 -118.712266 331 20555ft 211kts
23-Apr-21 15:45 34.559475 -118.739782 331 21589ft 215kts
23-Apr-21 15:46 34.615894 -118.767766 330 22471ft 218kts
23-Apr-21 15:47 34.673525 -118.796383 330 23243ft 221kts
23-Apr-21 15:48 34.732203 -118.825566 330 24206ft 228kts
23-Apr-21 15:49 34.791658 -118.855184 330 25656ft 231kts
23-Apr-21 15:50 34.846672 -118.896294 320 26958ft 231kts
23-Apr-21 15:51 34.901492 -118.941174 320 27982ft 240kts
23-Apr-21 15:52 34.962094 -118.990967 320 27980ft 272kts
23-Apr-21 15:53 35.026328 -119.043781 320 27971ft 280kts
23-Apr-21 15:54 35.091567 -119.097528 320 27969ft 281kts
23-Apr-21 15:55 35.157469 -119.151948 320 27972ft 281kts
23-Apr-21 15:56 35.223181 -119.206312 320 27971ft 282kts
23-Apr-21 15:57 35.288817 -119.260727 321 27970ft 282kts
23-Apr-21 15:58 35.354495 -119.315269 320 27970ft 282kts
23-Apr-21 15:59 35.420422 -119.370138 321 27995ft 281kts
23-Apr-21 16:00 35.486098 -119.424914 321 27998ft 282kts
23-Apr-21 16:01 35.548576 -119.483181 304 27977ft 276kts
23-Apr-21 16:02 35.572874 -119.572916 283 27977ft 274kts
23-Apr-21 16:03 35.590157 -119.666021 282 27983ft 274kts
23-Apr-21 16:04 35.607143 -119.758905 282 27983ft 275kts
23-Apr-21 16:05 35.624079 -119.852023 282 27982ft 276kts
23-Apr-21 16:06 35.640989 -119.945432 282 27981ft 275kts
23-Apr-21 16:07 35.678327 -120.027706 305 27988ft 277kts
23-Apr-21 16:08 35.726734 -120.103290 305 28015ft 277kts
23-Apr-21 16:09 35.775023 -120.178993 305 28043ft 277kts
23-Apr-21 16:10 35.823060 -120.254470 305 28070ft 277kts
23-Apr-21 16:11 35.870630 -120.329377 305 28062ft 277kts
23-Apr-21 16:12 35.918920 -120.405575 305 28047ft 277kts
23-Apr-21 16:13 35.966858 -120.481405 305 28033ft 277kts
23-Apr-21 16:14 36.014722 -120.557252 304 28021ft 277kts
23-Apr-21 16:15 36.062677 -120.633455 304 28020ft 276kts
23-Apr-21 16:16 36.110442 -120.709502 304 28031ft 277kts
23-Apr-21 16:17 36.158426 -120.786061 303 28030ft 278kts
23-Apr-21 16:18 36.206545 -120.863017 303 28029ft 278kts
23-Apr-21 16:19 36.254276 -120.939529 303 28028ft 278kts
23-Apr-21 16:20 36.301521 -121.015433 303 28048ft 277kts
23-Apr-21 16:21 36.349383 -121.092495 303 28082ft 277kts
23-Apr-21 16:22 36.399392 -121.173265 303 26350ft 300kts
23-Apr-21 16:23 36.451172 -121.256995 303 24424ft 300kts
23-Apr-21 16:24 36.500088 -121.336251 303 24105ft 269kts
23-Apr-21 16:25 36.548760 -121.415457 303 22114ft 293kts
23-Apr-21 16:26 36.599371 -121.497910 304 20049ft 296kts
23-Apr-21 16:27 36.650068 -121.580704 304 17981ft 293kts
23-Apr-21 16:28 36.723491 -121.619493 346 15879ft 300kts
23-Apr-21 16:29 36.805181 -121.636480 346 13791ft 280kts
23-Apr-21 16:30 36.880327 -121.652460 346 11746ft 268kts
23-Apr-21 16:31 36.954276 -121.668174 346 9726ft 259kts
23-Apr-21 16:32 37.025072 -121.683277 347 7662ft 250kts
23-Apr-21 16:33 37.093690 -121.697952 347 5618ft 244kts
23-Apr-21 16:34 37.160740 -121.712584 342 4009ft 233kts
23-Apr-21 16:35 37.205247 -121.757835 316 3644ft 217kts
23-Apr-21 16:36 37.241680 -121.797628 315 3463ft 211kts
23-Apr-21 16:37 37.276908 -121.835997 316 2688ft 172kts
23-Apr-21 16:38 37.298337 -121.859514 315 2003ft 146kts
23-Apr-21 16:39 37.324150 -121.887676 318 935ft 121kts
23-Apr-21 16:40 37.343970 -121.909371 322 425ft 89kts
23-Apr-21 16:41 37.359052 -121.925876 319 55ft 47kts
23-Apr-21 16:42 37.362113 -121.930881 226 49ft 1kts
23-Apr-21 16:43 37.361521 -121.931668 227 50ft 8kts
23-Apr-21 16:44 37.361146 -121.933367 251 49ft 10kts
23-Apr-21 16:45 37.361238 -121.934774 277 51ft 10kts
23-Apr-21 16:46 37.361289 -121.934881 314 51ft 0kts
23-Apr-21 16:47 37.361288 -121.934881 314 51ft 0kts
23-Apr-21 16:48 37.361288 -121.934881 314 51ft 0kts
23-Apr-21 16:49 37.361288 -121.934881 314 51ft 0kts
23-Apr-21 16:50 37.361288 -121.934881 314 51ft 0kts
23-Apr-21 16:51 37.361288 -121.934881 314 51ft 0kts
23-Apr-21 16:53 37.361288 -121.934881 314 51ft 0kts
23-Apr-21 16:54 37.361288 -121.934881 314 51ft 0kts
23-Apr-21 16:55 37.361288 -121.934881 314 51ft 0kts
23-Apr-21 16:56 37.361288 -121.934881 314 51ft 0kts
23-Apr-21 16:57 37.361288 -121.934881 314 51ft 0kts

Navigation Log

Ident Type
Flight plan parsing failed, navigation log unavailable